^^
Station Historical Data
Daily Summary for February 5, 2018 Units:  English    Metric   Both
« Previous Day
Next Day »
Daily Weekly Monthly Yearly Custom
  High: Low: Average:
Temperature: TemperatureC °F -11.7 °F -8.9 °F
Dew Point: DewpointC °F -12.9 °F -10.3 °F
Humidity: Humidity% 83% 89%
Wind Speed: WindSpeedKMHmph 0.0mph 5.1mph
Wind Gust: WindSpeedGustKMHmph - -
Wind- - NW
Pressure: PressurehPa in 1019.5 in -
Precipitation: 0.0 in    
Historical Graphs
 
 
Tabular Data for February 5, 2018
Time Temperature Dew Point Pressure Wind Wind Speed Wind Gust Humidity Rainfall Rate (Hourly) solar Conditions
TemperatureC °F DewpointC °F PressurehPa in Calm     Humidity% HourlyPrecipMM in SoftwareType W/m2 Conditions
00:01 -10.8 °F -12.0 °F 1027.3 in NNW 3.7 mph 9.7 mph 91% 0.0 in WeatherDisplay:10.37 W/m2 FEW
00:06 -10.9 °F -12.1 °F 1027.3 in NNW 7.2 mph 9.7 mph 91% 0.0 in WeatherDisplay:10.37 W/m2 FEW
00:11 -10.9 °F -12.1 °F 1027.3 in NNW 6.8 mph 13.0 mph 91% 0.0 in WeatherDisplay:10.37 W/m2 FEW
00:16 -10.9 °F -12.1 °F 1027.3 in NNW 5.8 mph 9.3 mph 91% 0.0 in WeatherDisplay:10.37 W/m2 FEW
00:21 -10.9 °F -12.1 °F 1027.3 in NNW 6.3 mph 13.0 mph 91% 0.0 in WeatherDisplay:10.37 W/m2 FEW
00:26 -10.9 °F -12.1 °F 1027.3 in NNW 4.7 mph 5.6 mph 91% 0.0 in WeatherDisplay:10.37 W/m2 FEW
00:31 -11.0 °F -12.2 °F 1027.7 in NNW 5.3 mph 9.7 mph 91% 0.0 in WeatherDisplay:10.37 W/m2 FEW
00:36 -11.0 °F -12.2 °F 1027.3 in NNW 4.8 mph 9.3 mph 91% 0.0 in WeatherDisplay:10.37 W/m2 FEW
00:41 -11.1 °F -12.2 °F 1027.3 in NNW 4.5 mph 5.6 mph 91% 0.0 in WeatherDisplay:10.37 W/m2 FEW
00:46 -11.1 °F -12.3 °F 1027.3 in NNW 4.2 mph 5.6 mph 91% 0.0 in WeatherDisplay:10.37 W/m2 FEW
00:51 -11.2 °F -12.4 °F 1027.3 in NNW 3.7 mph 7.4 mph 91% 0.0 in WeatherDisplay:10.37 W/m2 FEW
00:56 -11.3 °F -12.4 °F 1027.3 in NNW 4.7 mph 7.4 mph 91% 0.0 in WeatherDisplay:10.37 W/m2 FEW
01:01 -11.3 °F -12.5 °F 1027.3 in NNW 4.2 mph 9.3 mph 91% 0.0 in WeatherDisplay:10.37 W/m2 FEW
01:06 -11.3 °F -12.5 °F 1027.7 in NNW 4.5 mph 7.4 mph 91% 0.0 in WeatherDisplay:10.37 W/m2 FEW
01:11 -11.4 °F -12.6 °F 1027.3 in NNW 3.7 mph 5.6 mph 91% 0.0 in WeatherDisplay:10.37 W/m2 FEW
01:16 -11.5 °F -12.7 °F 1027.3 in NNW 3.9 mph 5.6 mph 91% 0.0 in WeatherDisplay:10.37 W/m2 FEW
01:21 -11.6 °F -12.7 °F 1027.7 in NNW 3.4 mph 5.6 mph 91% 0.0 in WeatherDisplay:10.37 W/m2 FEW
01:26 -11.6 °F -12.8 °F 1027.7 in NNW 1.9 mph 6.4 mph 91% 0.0 in WeatherDisplay:10.37 W/m2 FEW
01:31 -11.7 °F -12.8 °F 1027.3 in NNW 1.6 mph 7.4 mph 91% 0.0 in WeatherDisplay:10.37 W/m2 FEW
01:36 -11.7 °F -12.9 °F 1027.7 in Calm     91% 0.0 in WeatherDisplay:10.37 W/m2 FEW
01:41 -11.7 °F -12.9 °F 1027.7 in NNW 1.8 mph 3.2 mph 91% 0.0 in WeatherDisplay:10.37 W/m2 FEW
01:46 -11.7 °F -12.9 °F 1027.3 in NNW 5.5 mph 11.1 mph 91% 0.0 in WeatherDisplay:10.37 W/m2 FEW
01:51 -11.6 °F -12.6 °F 1027.7 in NNW 4.8 mph 9.3 mph 92% 0.0 in WeatherDisplay:10.37 W/m2 FEW
01:56 -11.6 °F -12.6 °F 1027.7 in NNW 3.4 mph 5.6 mph 92% 0.0 in WeatherDisplay:10.37 W/m2 FEW
02:01 -11.5 °F -12.7 °F 1027.7 in NW 5.0 mph 6.4 mph 91% 0.0 in WeatherDisplay:10.37 W/m2 FEW
02:06 -11.5 °F -12.7 °F 1027.7 in North 5.8 mph 7.4 mph 91% 0.0 in WeatherDisplay:10.37 W/m2 FEW
02:11 -11.5 °F -12.7 °F 1027.7 in NNW 4.8 mph 8.0 mph 91% 0.0 in WeatherDisplay:10.37 W/m2 FEW
02:16 -11.4 °F -12.5 °F 1027.7 in NNW 6.1 mph 8.0 mph 92% 0.0 in WeatherDisplay:10.37 W/m2 FEW
02:21 -11.3 °F -12.4 °F 1027.7 in NNW 4.3 mph 9.3 mph 92% 0.0 in WeatherDisplay:10.37 W/m2 FEW
02:26 -11.3 °F -12.4 °F 1027.7 in NNW 6.3 mph 14.8 mph 92% 0.0 in WeatherDisplay:10.37 W/m2 FEW
02:31 -11.3 °F -12.3 °F 1027.7 in North 6.4 mph 14.8 mph 92% 0.0 in WeatherDisplay:10.37 W/m2 FEW
02:36 -11.2 °F -12.2 °F 1027.7 in NNW 5.6 mph 13.0 mph 92% 0.0 in WeatherDisplay:10.37 W/m2 FEW
02:41 -11.1 °F -12.1 °F 1027.7 in NNW 6.6 mph 13.0 mph 92% 0.0 in WeatherDisplay:10.37 W/m2 FEW
02:46 -11.0 °F -12.1 °F 1027.7 in North 6.1 mph 9.7 mph 92% 0.0 in WeatherDisplay:10.37 W/m2 FEW
02:51 -10.8 °F -11.9 °F 1027.7 in NW 6.1 mph 7.4 mph 92% 0.0 in WeatherDisplay:10.37 W/m2 FEW
02:56 -10.7 °F -11.7 °F 1027.7 in NNW 6.4 mph 14.8 mph 92% 0.0 in WeatherDisplay:10.37 W/m2 FEW
03:01 -10.6 °F -11.6 °F 1027.7 in NW 5.1 mph 9.3 mph 92% 0.0 in WeatherDisplay:10.37 W/m2 FEW
03:06 -10.4 °F -11.5 °F 1027.7 in NNW 5.0 mph 8.0 mph 92% 0.0 in WeatherDisplay:10.37 W/m2 FEW
03:11 -10.3 °F -11.4 °F 1027.7 in NNW 6.1 mph 9.7 mph 92% 0.0 in WeatherDisplay:10.37 W/m2 FEW
03:16 -10.3 °F -11.3 °F 1027.7 in NNW 6.3 mph 7.4 mph 92% 0.0 in WeatherDisplay:10.37 W/m2 FEW
03:21 -10.2 °F -11.3 °F 1027.7 in NNW 2.6 mph 5.6 mph 92% 0.0 in WeatherDisplay:10.37 W/m2 FEW
03:26 -10.2 °F -11.2 °F 1027.7 in NW 2.4 mph 5.6 mph 92% 0.0 in WeatherDisplay:10.37 W/m2 FEW
03:31 -10.1 °F -11.2 °F 1027.7 in NNW 3.9 mph 9.3 mph 92% 0.0 in WeatherDisplay:10.37 W/m2 FEW
03:36 -10.1 °F -11.1 °F 1027.7 in NNW 4.2 mph 5.6 mph 92% 0.0 in WeatherDisplay:10.37 W/m2 FEW
03:41 -9.9 °F -11.0 °F 1027.7 in NNW 5.3 mph 9.3 mph 92% 0.0 in WeatherDisplay:10.37 W/m2 FEW
03:46 -9.8 °F -10.9 °F 1027.7 in NNW 3.9 mph 9.3 mph 92% 0.0 in WeatherDisplay:10.37 W/m2 FEW
03:51 -9.8 °F -10.9 °F 1027.7 in NW 2.6 mph 5.6 mph 92% 0.0 in WeatherDisplay:10.37 W/m2 FEW
03:56 -9.8 °F -10.8 °F 1027.7 in NNW 5.3 mph 7.4 mph 92% 0.0 in WeatherDisplay:10.37 W/m2 FEW
04:01 -9.8 °F -10.8 °F 1027.7 in NNW 3.9 mph 5.6 mph 92% 0.0 in WeatherDisplay:10.37 W/m2 FEW
04:06 -9.8 °F -10.8 °F 1027.7 in NNW 4.8 mph 5.6 mph 92% 0.0 in WeatherDisplay:10.37 W/m2 FEW
04:11 -9.8 °F -10.8 °F 1027.7 in NNW 3.5 mph 6.4 mph 92% 0.0 in WeatherDisplay:10.37 W/m2 FEW
04:16 -9.8 °F -10.9 °F 1027.7 in NNW 5.1 mph 9.3 mph 92% 0.0 in WeatherDisplay:10.37 W/m2 FEW
04:21 -9.8 °F -10.9 °F 1027.7 in NNW 4.5 mph 5.6 mph 92% 0.0 in WeatherDisplay:10.37 W/m2 FEW
04:26 -9.8 °F -10.9 °F 1027.7 in NNW 0.6 mph 5.6 mph 92% 0.0 in WeatherDisplay:10.37 W/m2 FEW
04:31 -9.8 °F -10.9 °F 1027.7 in NNW 3.2 mph 7.4 mph 92% 0.0 in WeatherDisplay:10.37 W/m2 FEW
04:36 -9.8 °F -10.8 °F 1027.7 in NNW 2.6 mph 9.3 mph 92% 0.0 in WeatherDisplay:10.37 W/m2 FEW
04:41 -9.7 °F -10.8 °F 1027.7 in NNW 3.4 mph 5.6 mph 92% 0.0 in WeatherDisplay:10.37 W/m2 FEW
04:46 -9.7 °F -10.8 °F 1028.0 in NNW 4.5 mph 5.6 mph 92% 0.0 in WeatherDisplay:10.37 W/m2 FEW
04:51 -9.6 °F -10.7 °F 1027.7 in NNW 5.6 mph 7.4 mph 92% 0.0 in WeatherDisplay:10.37 W/m2 FEW
04:56 -9.4 °F -10.5 °F 1027.7 in NW 5.0 mph 5.6 mph 92% 0.0 in WeatherDisplay:10.37 W/m2 FEW
05:01 -9.3 °F -10.4 °F 1027.7 in NNW 7.6 mph 13.0 mph 92% 0.0 in WeatherDisplay:10.37 W/m2 FEW
05:06 -9.3 °F -10.3 °F 1027.7 in NW 4.2 mph 7.4 mph 92% 0.0 in WeatherDisplay:10.37 W/m2 FEW
05:11 -9.3 °F -10.3 °F 1027.7 in NNW 6.0 mph 9.3 mph 92% 0.0 in WeatherDisplay:10.37 W/m2 FEW
05:16 -9.3 °F -10.3 °F 1028.0 in NNW 5.0 mph 7.4 mph 92% 0.0 in WeatherDisplay:10.37 W/m2 FEW
05:21 -9.3 °F -10.3 °F 1028.0 in NW 4.3 mph 7.4 mph 92% 0.0 in WeatherDisplay:10.37 W/m2 FEW
05:26 -9.2 °F -10.3 °F 1028.0 in NNW 1.3 mph 6.4 mph 92% 0.0 in WeatherDisplay:10.37 W/m2 FEW
05:31 -9.3 °F -10.3 °F 1028.0 in NW 3.7 mph 5.6 mph 92% 0.0 in WeatherDisplay:10.37 W/m2 FEW
05:36 -9.3 °F -10.3 °F 1028.0 in NW 4.8 mph 7.4 mph 92% 0.0 in WeatherDisplay:10.37 W/m2 FEW
05:41 -9.2 °F -10.2 °F 1028.0 in NW 5.1 mph 7.4 mph 92% 0.0 in WeatherDisplay:10.37 W/m2 FEW
05:46 -9.2 °F -10.2 °F 1028.0 in NNW 3.9 mph 9.3 mph 92% 0.0 in WeatherDisplay:10.37 W/m2 FEW
05:51 -9.2 °F -10.2 °F 1027.7 in NNW 1.6 mph 7.4 mph 92% 0.0 in WeatherDisplay:10.37 W/m2 FEW
05:56 -9.2 °F -10.2 °F 1027.7 in NNW 5.0 mph 7.4 mph 92% 0.0 in WeatherDisplay:10.37 W/m2 FEW
06:01 -9.1 °F -10.2 °F 1027.7 in NNW 3.5 mph 6.4 mph 92% 0.0 in WeatherDisplay:10.37 W/m2 FEW
06:06 -9.1 °F -10.2 °F 1027.7 in NNW 5.5 mph 5.6 mph 92% 0.0 in WeatherDisplay:10.37 W/m2 FEW
06:11 -9.2 °F -10.2 °F 1027.7 in NNW 3.9 mph 6.4 mph 92% 0.0 in WeatherDisplay:10.37 W/m2 FEW
06:16 -9.2 °F -10.4 °F 1027.7 in NW 5.0 mph 5.6 mph 91% 0.0 in WeatherDisplay:10.37 W/m2 FEW
06:21 -9.2 °F -10.3 °F 1027.7 in NNW 4.0 mph 9.7 mph 92% 0.0 in WeatherDisplay:10.37 W/m2 FEW
06:26 -9.2 °F -10.2 °F 1027.7 in NNW 5.1 mph 9.3 mph 92% 0.0 in WeatherDisplay:10.37 W/m2 FEW
06:31 -9.2 °F -10.2 °F 1027.7 in NNW 4.5 mph 9.3 mph 92% 0.0 in WeatherDisplay:10.37 W/m2 FEW
06:36 -9.2 °F -10.2 °F 1027.7 in NNW 6.0 mph 9.7 mph 92% 0.0 in WeatherDisplay:10.37 W/m2 FEW
06:41 -9.1 °F -10.1 °F 1027.7 in NW 5.3 mph 8.0 mph 92% 0.0 in WeatherDisplay:10.37 W/m2 FEW
06:46 -9.1 °F -10.3 °F 1027.7 in NNW 8.2 mph 13.0 mph 91% 0.0 in WeatherDisplay:10.37 W/m2 FEW
06:51 -9.1 °F -10.3 °F 1027.7 in WNW 6.1 mph 9.3 mph 91% 0.0 in WeatherDisplay:10.37 W/m2 FEW
06:56 -9.2 °F -10.4 °F 1027.7 in NNW 5.6 mph 8.0 mph 91% 0.0 in WeatherDisplay:10.37 W/m2 FEW
07:01 -9.2 °F -10.4 °F 1027.7 in NNW 4.5 mph 7.4 mph 91% 0.0 in WeatherDisplay:10.37 W/m2 FEW
07:06 -9.2 °F -10.4 °F 1027.7 in NNW 4.3 mph 5.6 mph 91% 0.0 in WeatherDisplay:10.37 W/m2 FEW
07:11 -9.2 °F -10.4 °F 1027.7 in NNW 4.3 mph 9.3 mph 91% 0.0 in WeatherDisplay:10.37 W/m2 FEW
07:16 -9.3 °F -10.5 °F 1027.7 in NNW 3.7 mph 5.6 mph 91% 0.0 in WeatherDisplay:10.37 W/m2 FEW
07:21 -9.3 °F -10.5 °F 1027.7 in NW 3.5 mph 9.3 mph 91% 0.0 in WeatherDisplay:10.37 W/m2 FEW
07:26 -9.3 °F -10.5 °F 1027.7 in NNW 4.5 mph 5.6 mph 91% 0.0 in WeatherDisplay:10.37 W/m2 FEW
07:31 -9.3 °F -10.5 °F 1027.7 in NNW 2.3 mph 7.4 mph 91% 0.0 in WeatherDisplay:10.37 W/m2 FEW
07:36 -9.3 °F -10.5 °F 1027.7 in NNW 4.8 mph 9.3 mph 91% 0.0 in WeatherDisplay:10.37 W/m2 FEW
07:41 -9.3 °F -10.5 °F 1027.7 in NNW 4.8 mph 9.3 mph 91% 0.0 in WeatherDisplay:10.37 W/m2 FEW
07:46 -9.3 °F -10.5 °F 1027.7 in NNW 6.0 mph 13.0 mph 91% 0.0 in WeatherDisplay:10.37 W/m2 FEW
07:51 -9.2 °F -10.4 °F 1027.7 in NNW 4.3 mph 9.3 mph 91% 0.0 in WeatherDisplay:10.37 W/m2 FEW
07:56 -9.2 °F -10.4 °F 1027.7 in NNW 4.2 mph 13.0 mph 91% 0.0 in WeatherDisplay:10.37 W/m2 FEW
08:01 -9.2 °F -10.4 °F 1027.7 in NNW 4.5 mph 6.4 mph 91% 0.0 in WeatherDisplay:10.37 W/m2 FEW
08:06 -9.2 °F -10.4 °F 1027.7 in WNW 6.3 mph 7.4 mph 91% 0.0 in WeatherDisplay:10.37 W/m2 FEW
08:11 -9.2 °F -10.4 °F 1027.7 in NNW 6.3 mph 9.3 mph 91% 0.0 in WeatherDisplay:10.37 W/m2 FEW
08:16 -9.2 °F -10.5 °F 1027.7 in NNW 3.9 mph 9.3 mph 90% 0.0 in WeatherDisplay:10.37 W/m2 FEW
08:21 -9.2 °F -10.6 °F 1027.7 in NNW 1.1 mph 7.4 mph 90% 0.0 in WeatherDisplay:10.37 W/m2 FEW
08:26 -9.3 °F -10.6 °F 1027.7 in NNW 4.0 mph 13.0 mph 90% 0.0 in WeatherDisplay:10.37 W/m2 FEW
08:31 -9.3 °F -10.6 °F 1027.7 in NNW 1.4 mph 7.4 mph 90% 0.0 in WeatherDisplay:10.37 W/m2 FEW
08:36 -9.3 °F -10.6 °F 1027.7 in NNW 5.0 mph 7.4 mph 90% 0.0 in WeatherDisplay:10.37 W/m2 FEW
08:41 -9.3 °F -10.7 °F 1027.7 in NW 3.4 mph 9.3 mph 90% 0.0 in WeatherDisplay:10.37 W/m2 FEW
08:46 -9.3 °F -10.7 °F 1028.0 in NNW 1.4 mph 5.6 mph 90% 0.0 in WeatherDisplay:10.37 W/m2 FEW
08:51 -9.4 °F -10.7 °F 1028.0 in NNW 1.1 mph 7.4 mph 90% 0.0 in WeatherDisplay:10.37 W/m2 FEW
08:56 -9.4 °F -10.7 °F 1028.0 in NNW 4.3 mph 5.6 mph 90% 0.0 in WeatherDisplay:10.37 W/m2 FEW
09:01 -9.4 °F -10.7 °F 1027.7 in NNW 7.1 mph 13.0 mph 90% 0.0 in WeatherDisplay:10.37 W/m2 FEW
09:06 -9.3 °F -10.7 °F 1027.7 in NNW 6.0 mph 16.7 mph 90% 0.0 in WeatherDisplay:10.37 W/m2 FEW
09:11 -9.3 °F -10.6 °F 1027.7 in NNW 8.7 mph 14.8 mph 90% 0.0 in WeatherDisplay:10.37 W/m2 FEW
09:16 -9.2 °F -10.6 °F 1027.7 in NNW 9.7 mph 16.7 mph 90% 0.0 in WeatherDisplay:10.37 W/m2 FEW
09:21 -9.2 °F -10.5 °F 1027.7 in NW 5.3 mph 14.8 mph 90% 0.0 in WeatherDisplay:10.37 W/m2 FEW
09:26 -9.1 °F -10.4 °F 1027.7 in North 13.2 mph 14.8 mph 90% 0.0 in WeatherDisplay:10.37 W/m2 FEW
09:31 -9.1 °F -10.4 °F 1027.7 in NNW 9.3 mph 13.0 mph 90% 0.0 in WeatherDisplay:10.37 W/m2 FEW
09:36 -9.1 °F -10.4 °F 1027.7 in NNW 9.5 mph 14.8 mph 90% 0.0 in WeatherDisplay:10.37 W/m2 FEW
09:41 -9.0 °F -10.3 °F 1027.7 in NNW 7.4 mph 13.0 mph 90% 0.0 in WeatherDisplay:10.37 W/m2 FEW
09:46 -9.0 °F -10.3 °F 1027.7 in NNW 4.3 mph 5.6 mph 90% 0.0 in WeatherDisplay:10.37 W/m2 FEW
09:51 -8.9 °F -10.3 °F 1027.7 in NNW 5.6 mph 18.5 mph 90% 0.0 in WeatherDisplay:10.37 W/m2 FEW
09:56 -8.9 °F -10.2 °F 1027.7 in NW 4.0 mph 7.4 mph 90% 0.0 in WeatherDisplay:10.37 W/m2 FEW
10:01 -8.8 °F -10.3 °F 1027.7 in NNW 8.2 mph 14.8 mph 89% 0.0 in WeatherDisplay:10.37 W/m2 FEW
10:06 -8.8 °F -10.3 °F 1027.7 in NNW 4.8 mph 9.3 mph 89% 0.0 in WeatherDisplay:10.37 W/m2 FEW
10:11 -8.7 °F -10.2 °F 1027.7 in NNW 5.8 mph 9.3 mph 89% 0.0 in WeatherDisplay:10.37 W/m2 FEW
10:16 -8.7 °F -10.2 °F 1027.7 in NNW 7.1 mph 14.8 mph 89% 0.0 in WeatherDisplay:10.37 W/m2 FEW
10:22 -8.6 °F -10.1 °F 1027.7 in North 8.4 mph 20.4 mph 89% 0.0 in WeatherDisplay:10.37 W/m2 FEW
10:27 -8.6 °F -10.1 °F 1027.7 in NNW 4.3 mph 7.4 mph 89% 0.0 in WeatherDisplay:10.37 W/m2 FEW
10:32 -8.4 °F -9.9 °F 1027.7 in NNW 7.6 mph 18.5 mph 89% 0.0 in WeatherDisplay:10.37 W/m2 FEW
10:37 -8.4 °F -9.9 °F 1027.7 in NNW 6.3 mph 13.0 mph 89% 0.0 in WeatherDisplay:10.37 W/m2 FEW
10:42 -8.3 °F -9.8 °F 1027.7 in NNW 5.6 mph 12.9 mph 89% 0.0 in WeatherDisplay:10.37 W/m2 FEW
10:47 -8.3 °F -9.9 °F 1027.7 in NNE 3.7 mph 11.1 mph 88% 0.0 in WeatherDisplay:10.37 W/m2 FEW
10:52 -8.2 °F -9.8 °F 1027.7 in NNW 4.0 mph 7.4 mph 88% 0.0 in WeatherDisplay:10.37 W/m2 FEW
10:57 -8.1 °F -9.6 °F 1027.7 in North 4.3 mph 9.3 mph 89% 0.0 in WeatherDisplay:10.37 W/m2 FEW
11:02 -7.9 °F -9.6 °F 1027.7 in NNW 5.3 mph 9.7 mph 88% 0.0 in WeatherDisplay:10.37 W/m2 FEW
11:07 -7.8 °F -9.5 °F 1027.7 in NNW 3.7 mph 9.3 mph 88% 0.0 in WeatherDisplay:10.37 W/m2 FEW
11:12 -7.7 °F -9.4 °F 1027.3 in North 1.8 mph 14.8 mph 88% 0.0 in WeatherDisplay:10.37 W/m2 FEW
11:17 -7.7 °F -9.4 °F 1027.3 in NNW 2.3 mph 6.4 mph 87% 0.0 in WeatherDisplay:10.37 W/m2 FEW
11:22 -7.6 °F -9.3 °F 1027.0 in NNW 5.8 mph 18.5 mph 88% 0.0 in WeatherDisplay:10.37 W/m2 FEW
11:28 -7.6 °F -9.3 °F 1027.0 in North 8.2 mph 16.7 mph 87% 0.0 in WeatherDisplay:10.37 W/m2 FEW
11:33 -7.5 °F -9.3 °F 1027.0 in NNW 3.9 mph 7.4 mph 87% 0.0 in WeatherDisplay:10.37 W/m2 FEW
11:38 -7.4 °F -9.2 °F 1027.0 in NNW 7.2 mph 13.0 mph 87% 0.0 in WeatherDisplay:10.37 W/m2 FEW
11:43 -7.3 °F -9.1 °F 1027.0 in ENE 5.0 mph 7.4 mph 87% 0.0 in WeatherDisplay:10.37 W/m2 FEW
11:48 -7.3 °F -9.1 °F 1027.0 in NNW 3.9 mph 7.4 mph 87% 0.0 in WeatherDisplay:10.37 W/m2 FEW
11:53 -7.2 °F -9.0 °F 1027.0 in NNW 10.0 mph 14.5 mph 87% 0.0 in WeatherDisplay:10.37 W/m2 FEW
11:58 -7.2 °F -9.1 °F 1027.0 in NW 2.3 mph 5.6 mph 86% 0.0 in WeatherDisplay:10.37 W/m2 FEW
12:03 -7.1 °F -9.0 °F 1027.0 in NNW 2.6 mph 5.6 mph 86% 0.0 in WeatherDisplay:10.37 W/m2 FEW
12:08 -6.9 °F -8.9 °F 1027.0 in NNW 5.3 mph 7.4 mph 86% 0.0 in WeatherDisplay:10.37 W/m2 FEW
12:13 -6.8 °F -8.8 °F 1027.0 in NW 0.2 mph 5.6 mph 86% 0.0 in WeatherDisplay:10.37 W/m2 FEW
12:18 -6.7 °F -8.8 °F 1027.0 in North 5.8 mph 9.3 mph 85% 0.0 in WeatherDisplay:10.37 W/m2 FEW
12:23 -6.7 °F -8.7 °F 1027.0 in NNE 2.4 mph 5.6 mph 86% 0.0 in WeatherDisplay:10.37 W/m2 FEW
12:28 -6.7 °F -8.6 °F 1026.6 in NNE 3.9 mph 9.3 mph 86% 0.0 in WeatherDisplay:10.37 W/m2 FEW
12:33 -6.6 °F -8.5 °F 1026.6 in NNW 3.7 mph 7.4 mph 86% 0.0 in WeatherDisplay:10.37 W/m2 FEW
12:38 -6.4 °F -8.6 °F 1026.6 in NNE 0.6 mph 8.0 mph 85% 0.0 in WeatherDisplay:10.37 W/m2 FEW
12:43 -6.4 °F -8.6 °F 1026.6 in NNE 8.2 mph 11.3 mph 85% 0.0 in WeatherDisplay:10.37 W/m2 FEW
12:48 -6.4 °F -8.6 °F 1026.6 in NNW 5.0 mph 6.4 mph 85% 0.0 in WeatherDisplay:10.37 W/m2 FEW
12:53 -6.4 °F -8.5 °F 1026.6 in WNW 10.6 mph 12.9 mph 85% 0.0 in WeatherDisplay:10.37 W/m2 FEW
12:58 -6.3 °F -8.6 °F 1026.3 in NNW 8.7 mph 13.0 mph 84% 0.0 in WeatherDisplay:10.37 W/m2 FEW
13:03 -6.3 °F -8.6 °F 1026.3 in North 8.5 mph 18.5 mph 84% 0.0 in WeatherDisplay:10.37 W/m2 FEW
13:08 -6.2 °F -8.5 °F 1026.3 in North 9.0 mph 17.7 mph 84% 0.0 in WeatherDisplay:10.37 W/m2 FEW
13:13 -6.2 °F -8.5 °F 1026.3 in NW 8.4 mph 13.0 mph 84% 0.0 in WeatherDisplay:10.37 W/m2 FEW
13:18 -6.2 °F -8.4 °F 1026.3 in NW 17.7 mph 20.4 mph 84% 0.0 in WeatherDisplay:10.37 W/m2 FEW
13:23 -6.2 °F -8.4 °F 1026.0 in NW 9.3 mph 16.1 mph 84% 0.0 in WeatherDisplay:10.37 W/m2 FEW
13:28 -6.2 °F -8.6 °F 1026.0 in NW 6.8 mph 7.4 mph 83% 0.0 in WeatherDisplay:10.37 W/m2 FEW
13:33 -6.2 °F -8.6 °F 1026.0 in NW 13.5 mph 22.2 mph 83% 0.0 in WeatherDisplay:10.37 W/m2 FEW
13:38 -6.2 °F -8.6 °F 1026.0 in NW 4.3 mph 18.5 mph 83% 0.0 in WeatherDisplay:10.37 W/m2 FEW
13:43 -6.3 °F -8.7 °F 1026.0 in NW 11.9 mph 18.5 mph 83% 0.0 in WeatherDisplay:10.37 W/m2 FEW
13:48 -6.2 °F -8.6 °F 1026.0 in North 6.9 mph 13.0 mph 83% 0.0 in WeatherDisplay:10.37 W/m2 FEW
13:53 -6.2 °F -8.5 °F 1026.0 in NW 11.1 mph 13.0 mph 84% 0.0 in WeatherDisplay:10.37 W/m2 FEW
13:58 -6.2 °F -8.5 °F 1026.0 in NNW 7.2 mph 14.8 mph 84% 0.0 in WeatherDisplay:10.37 W/m2 FEW
14:03 -6.2 °F -8.6 °F 1025.6 in North 11.9 mph 22.2 mph 83% 0.0 in WeatherDisplay:10.37 W/m2 FEW
14:08 -6.2 °F -8.4 °F 1025.6 in NNW 11.3 mph 20.4 mph 84% 0.0 in WeatherDisplay:10.37 W/m2 FEW
14:13 -6.2 °F -8.6 °F 1025.6 in NW 12.2 mph 29.6 mph 83% 0.0 in WeatherDisplay:10.37 W/m2 FEW
14:18 -6.2 °F -8.6 °F 1025.6 in NNW 3.1 mph 9.3 mph 83% 0.0 in WeatherDisplay:10.37 W/m2 FEW
14:23 -6.3 °F -8.6 °F 1025.6 in NNW 6.9 mph 9.3 mph 84% 0.0 in WeatherDisplay:10.37 W/m2 FEW
14:28 -6.3 °F -8.6 °F 1025.3 in NNW 5.8 mph 14.8 mph 84% 0.0 in WeatherDisplay:10.37 W/m2 FEW
14:33 -6.3 °F -8.6 °F 1024.9 in NNW 6.4 mph 14.8 mph 84% 0.0 in WeatherDisplay:10.37 W/m2 FEW
14:38 -6.3 °F -8.6 °F 1024.9 in NNW 1.3 mph 5.6 mph 84% 0.0 in WeatherDisplay:10.37 W/m2 FEW
14:43 -6.3 °F -8.6 °F 1024.9 in WNW 6.6 mph 18.5 mph 84% 0.0 in WeatherDisplay:10.37 W/m2 FEW
14:48 -6.3 °F -8.6 °F 1024.9 in NNW 6.9 mph 14.8 mph 84% 0.0 in WeatherDisplay:10.37 W/m2 FEW
14:53 -6.3 °F -8.6 °F 1024.9 in NNW 7.9 mph 14.8 mph 84% 0.0 in WeatherDisplay:10.37 W/m2 FEW
14:58 -6.3 °F -8.6 °F 1024.6 in North 5.8 mph 13.0 mph 84% 0.0 in WeatherDisplay:10.37 W/m2 FEW
15:03 -6.3 °F -8.6 °F 1024.6 in NW 6.6 mph 18.5 mph 84% 0.0 in WeatherDisplay:10.37 W/m2 FEW
15:08 -6.4 °F -8.7 °F 1024.6 in NW 6.1 mph 13.0 mph 84% 0.0 in WeatherDisplay:10.37 W/m2 FEW
15:13 -6.5 °F -8.8 °F 1024.6 in NNW 13.0 mph 18.5 mph 84% 0.0 in WeatherDisplay:10.37 W/m2 FEW
15:18 -6.6 °F -8.7 °F 1024.6 in NNW 8.2 mph 19.3 mph 85% 0.0 in WeatherDisplay:10.37 W/m2 FEW
15:24 -6.6 °F -8.8 °F 1024.6 in NNW 5.0 mph 12.9 mph 84% 0.0 in WeatherDisplay:10.37 W/m2 FEW
15:29 -6.6 °F -8.7 °F 1024.6 in NNW 8.0 mph 14.8 mph 85% 0.0 in WeatherDisplay:10.37 W/m2 FEW
15:34 -6.7 °F -8.8 °F 1024.6 in WNW 2.6 mph 7.4 mph 85% 0.0 in WeatherDisplay:10.37 W/m2 FEW
15:39 -6.7 °F -8.8 °F 1024.6 in North 10.1 mph 18.5 mph 85% 0.0 in WeatherDisplay:10.37 W/m2 FEW
15:44 -6.8 °F -8.9 °F 1024.6 in NE 4.2 mph 12.9 mph 85% 0.0 in WeatherDisplay:10.37 W/m2 FEW
15:49 -6.8 °F -8.7 °F 1024.6 in NNW 9.3 mph 18.5 mph 86% 0.0 in WeatherDisplay:10.37 W/m2 FEW
15:54 -6.8 °F -8.9 °F 1024.6 in NW 10.0 mph 16.7 mph 85% 0.0 in WeatherDisplay:10.37 W/m2 FEW
15:59 -6.9 °F -8.8 °F 1024.6 in NNW 2.3 mph 5.6 mph 86% 0.0 in WeatherDisplay:10.37 W/m2 FEW
16:04 -6.9 °F -8.9 °F 1024.6 in NNW 5.1 mph 22.2 mph 86% 0.0 in WeatherDisplay:10.37 W/m2 FEW
16:09 -7.0 °F -8.9 °F 1024.6 in NNW 5.8 mph 18.5 mph 86% 0.0 in WeatherDisplay:10.37 W/m2 FEW
16:14 -7.1 °F -9.0 °F 1024.3 in NNW 8.2 mph 18.5 mph 86% 0.0 in WeatherDisplay:10.37 W/m2 FEW
16:19 -7.2 °F -9.1 °F 1024.3 in NW 9.2 mph 18.5 mph 86% 0.0 in WeatherDisplay:10.37 W/m2 FEW
16:24 -7.2 °F -9.0 °F 1024.3 in NNW 10.8 mph 18.5 mph 87% 0.0 in WeatherDisplay:10.37 W/m2 FEW
16:29 -7.3 °F -9.1 °F 1024.3 in NNW 9.7 mph 18.5 mph 87% 0.0 in WeatherDisplay:10.37 W/m2 FEW
16:34 -7.3 °F -9.1 °F 1024.3 in NNW 10.8 mph 22.2 mph 87% 0.0 in WeatherDisplay:10.37 W/m2 FEW
16:39 -7.4 °F -9.2 °F 1024.3 in NNW 7.1 mph 16.7 mph 87% 0.0 in WeatherDisplay:10.37 W/m2 FEW
16:44 -7.5 °F -9.3 °F 1024.3 in NNW 9.7 mph 14.8 mph 87% 0.0 in WeatherDisplay:10.37 W/m2 FEW
16:49 -7.6 °F -9.4 °F 1024.3 in NW 10.6 mph 18.5 mph 87% 0.0 in WeatherDisplay:10.37 W/m2 FEW
16:54 -7.7 °F -9.3 °F 1024.3 in NW 6.6 mph 14.8 mph 88% 0.0 in WeatherDisplay:10.37 W/m2 FEW
16:59 -7.8 °F -9.6 °F 1024.3 in NNW 4.7 mph 9.3 mph 87% 0.0 in WeatherDisplay:10.37 W/m2 FEW
17:04 -7.8 °F -9.5 °F 1024.3 in NNW 2.3 mph 7.4 mph 88% 0.0 in WeatherDisplay:10.37 W/m2 FEW
17:09 -7.9 °F -9.6 °F 1023.9 in NW 4.8 mph 14.8 mph 88% 0.0 in WeatherDisplay:10.37 W/m2 FEW
17:14 -8.0 °F -9.6 °F 1023.9 in NNW 5.8 mph 9.3 mph 88% 0.0 in WeatherDisplay:10.37 W/m2 FEW
17:19 -8.1 °F -9.7 °F 1023.9 in NNW 11.1 mph 18.5 mph 88% 0.0 in WeatherDisplay:10.37 W/m2 FEW
17:24 -8.2 °F -9.8 °F 1023.9 in NNW 4.0 mph 7.4 mph 88% 0.0 in WeatherDisplay:10.37 W/m2 FEW
17:29 -8.3 °F -9.9 °F 1023.9 in NNW 4.8 mph 7.4 mph 88% 0.0 in WeatherDisplay:10.37 W/m2 FEW
17:34 -8.3 °F -9.8 °F 1023.9 in NNW 6.1 mph 13.0 mph 89% 0.0 in WeatherDisplay:10.37 W/m2 FEW
17:39 -8.3 °F -9.8 °F 1023.9 in NNW 3.2 mph 14.5 mph 89% 0.0 in WeatherDisplay:10.37 W/m2 FEW
17:44 -8.3 °F -9.8 °F 1023.9 in NNW 9.3 mph 16.7 mph 89% 0.0 in WeatherDisplay:10.37 W/m2 FEW
17:49 -8.4 °F -9.9 °F 1023.6 in NNW 9.8 mph 18.5 mph 89% 0.0 in WeatherDisplay:10.37 W/m2 FEW
17:54 -8.4 °F -9.9 °F 1023.6 in NNW 7.9 mph 14.8 mph 89% 0.0 in WeatherDisplay:10.37 W/m2 FEW
17:59 -8.5 °F -10.0 °F 1023.6 in NW 6.9 mph 14.8 mph 89% 0.0 in WeatherDisplay:10.37 W/m2 FEW
18:04 -8.5 °F -10.0 °F 1023.6 in NNW 3.1 mph 9.3 mph 89% 0.0 in WeatherDisplay:10.37 W/m2 FEW
18:09 -8.6 °F -10.1 °F 1023.6 in NNW 0.5 mph 3.7 mph 89% 0.0 in WeatherDisplay:10.37 W/m2 FEW
18:14 -8.6 °F -10.1 °F 1023.6 in NNW 4.3 mph 7.4 mph 89% 0.0 in WeatherDisplay:10.37 W/m2 FEW
18:19 -8.7 °F -10.2 °F 1023.6 in NNW 4.8 mph 12.9 mph 89% 0.0 in WeatherDisplay:10.37 W/m2 FEW
18:24 -8.7 °F -10.2 °F 1023.6 in NNE 5.0 mph 13.0 mph 89% 0.0 in WeatherDisplay:10.37 W/m2 FEW
18:29 -8.8 °F -10.3 °F 1023.2 in NNW 6.9 mph 14.8 mph 89% 0.0 in WeatherDisplay:10.37 W/m2 FEW
18:34 -8.8 °F -10.1 °F 1023.2 in NNW 2.9 mph 8.0 mph 90% 0.0 in WeatherDisplay:10.37 W/m2 FEW
18:39 -8.8 °F -10.2 °F 1023.2 in NW 5.6 mph 9.3 mph 90% 0.0 in WeatherDisplay:10.37 W/m2 FEW
18:44 -8.8 °F -10.2 °F 1023.6 in NNW 1.3 mph 8.0 mph 90% 0.0 in WeatherDisplay:10.37 W/m2 FEW
18:49 -8.9 °F -10.2 °F 1023.2 in NNW 6.3 mph 14.8 mph 90% 0.0 in WeatherDisplay:10.37 W/m2 FEW
18:54 -8.9 °F -10.2 °F 1023.2 in NNW 3.7 mph 9.3 mph 90% 0.0 in WeatherDisplay:10.37 W/m2 FEW
18:59 -8.9 °F -10.3 °F 1023.2 in NW 1.1 mph 3.7 mph 90% 0.0 in WeatherDisplay:10.37 W/m2 FEW
19:04 -8.9 °F -10.3 °F 1023.2 in NW 4.0 mph 9.7 mph 90% 0.0 in WeatherDisplay:10.37 W/m2 FEW
19:09 -8.9 °F -10.3 °F 1023.2 in NNW 5.3 mph 9.3 mph 90% 0.0 in WeatherDisplay:10.37 W/m2 FEW
19:14 -9.0 °F -10.3 °F 1023.2 in NNW 4.7 mph 7.4 mph 90% 0.0 in WeatherDisplay:10.37 W/m2 FEW
19:19 -9.0 °F -10.3 °F 1023.2 in NW 3.4 mph 9.3 mph 90% 0.0 in WeatherDisplay:10.37 W/m2 FEW
19:24 -9.1 °F -10.4 °F 1023.2 in NE 5.3 mph 13.0 mph 90% 0.0 in WeatherDisplay:10.37 W/m2 FEW
19:29 -9.1 °F -10.4 °F 1022.9 in NNW 1.0 mph 5.6 mph 90% 0.0 in WeatherDisplay:10.37 W/m2 FEW
19:34 -9.1 °F -10.4 °F 1022.9 in NNW 7.2 mph 16.7 mph 90% 0.0 in WeatherDisplay:10.37 W/m2 FEW
19:37 -9.1 °F -10.4 °F 1022.9 in NNW 6.0 mph 14.8 mph 90% 0.0 in WeatherDisplay:10.37 W/m2 FEW
19:42 -9.1 °F -10.4 °F 1022.9 in NNW 4.3 mph 9.3 mph 90% 0.0 in WeatherDisplay:10.37 W/m2 FEW
19:47 -9.1 °F -10.4 °F 1022.6 in NNW 10.1 mph 16.7 mph 90% 0.0 in WeatherDisplay:10.37 W/m2 FEW
19:52 -9.2 °F -10.5 °F 1022.6 in NNW 2.9 mph 5.6 mph 90% 0.0 in WeatherDisplay:10.37 W/m2 FEW
19:57 -9.2 °F -10.5 °F 1022.6 in NW 6.1 mph 14.8 mph 90% 0.0 in WeatherDisplay:10.37 W/m2 FEW
20:02 -9.2 °F -10.5 °F 1022.6 in NW 1.0 mph 6.4 mph 90% 0.0 in WeatherDisplay:10.37 W/m2 FEW
20:07 -9.2 °F -10.6 °F 1022.2 in NNW 3.7 mph 7.4 mph 90% 0.0 in WeatherDisplay:10.37 W/m2 FEW
20:12 -9.2 °F -10.6 °F 1022.2 in NNW 7.4 mph 14.8 mph 90% 0.0 in WeatherDisplay:10.37 W/m2 FEW
20:17 -9.2 °F -10.6 °F 1022.2 in North 3.1 mph 8.0 mph 90% 0.0 in WeatherDisplay:10.37 W/m2 FEW
20:22 -9.3 °F -10.6 °F 1021.9 in NW 5.8 mph 13.0 mph 90% 0.0 in WeatherDisplay:10.37 W/m2 FEW
20:27 -9.3 °F -10.7 °F 1021.9 in NE 3.1 mph 5.6 mph 90% 0.0 in WeatherDisplay:10.37 W/m2 FEW
20:32 -9.4 °F -10.7 °F 1021.9 in NNW 3.2 mph 7.4 mph 90% 0.0 in WeatherDisplay:10.37 W/m2 FEW
20:37 -9.4 °F -10.8 °F 1021.9 in NW 3.9 mph 5.6 mph 90% 0.0 in WeatherDisplay:10.37 W/m2 FEW
20:42 -9.5 °F -10.8 °F 1021.9 in Calm     90% 0.0 in WeatherDisplay:10.37 W/m2 FEW
20:47 -9.5 °F -10.8 °F 1021.9 in NNW 10.1 mph 19.3 mph 90% 0.0 in WeatherDisplay:10.37 W/m2 FEW
20:52 -9.5 °F -10.8 °F 1021.9 in NNE 5.0 mph 9.3 mph 90% 0.0 in WeatherDisplay:10.37 W/m2 FEW
20:57 -9.5 °F -10.8 °F 1021.9 in NNW 1.4 mph 5.6 mph 90% 0.0 in WeatherDisplay:10.37 W/m2 FEW
21:02 -9.6 °F -10.9 °F 1021.9 in NW 2.9 mph 5.6 mph 90% 0.0 in WeatherDisplay:10.37 W/m2 FEW
21:07 -9.6 °F -10.9 °F 1021.9 in NW 2.6 mph 7.4 mph 90% 0.0 in WeatherDisplay:10.37 W/m2 FEW
21:12 -9.7 °F -11.0 °F 1021.6 in NNW 4.7 mph 7.4 mph 90% 0.0 in WeatherDisplay:10.37 W/m2 FEW
21:17 -9.7 °F -11.1 °F 1021.6 in NNW 3.5 mph 9.3 mph 90% 0.0 in WeatherDisplay:10.37 W/m2 FEW
21:21 -9.7 °F -11.1 °F 1021.6 in Calm     90% 0.0 in WeatherDisplay:10.37 W/m2 FEW
21:26 -9.8 °F -11.1 °F 1021.6 in NNW 0.3 mph 3.7 mph 90% 0.0 in WeatherDisplay:10.37 W/m2 FEW
21:31 -9.8 °F -11.2 °F 1021.6 in NW 1.0 mph 5.6 mph 90% 0.0 in WeatherDisplay:10.37 W/m2 FEW
21:36 -9.8 °F -11.2 °F 1021.6 in NNW 0.6 mph 5.6 mph 90% 0.0 in WeatherDisplay:10.37 W/m2 FEW
21:41 -9.8 °F -11.2 °F 1021.6 in NNW 1.0 mph 7.4 mph 90% 0.0 in WeatherDisplay:10.37 W/m2 FEW
21:46 -9.9 °F -11.2 °F 1021.2 in NNW 1.8 mph 5.6 mph 90% 0.0 in WeatherDisplay:10.37 W/m2 FEW
21:51 -9.9 °F -11.3 °F 1021.2 in NW 0.5 mph 5.6 mph 90% 0.0 in WeatherDisplay:10.37 W/m2 FEW
21:56 -10.0 °F -11.3 °F 1021.2 in NNE 3.2 mph 5.6 mph 90% 0.0 in WeatherDisplay:10.37 W/m2 FEW
22:01 -10.1 °F -11.4 °F 1020.9 in NNW 6.0 mph 16.7 mph 90% 0.0 in WeatherDisplay:10.37 W/m2 FEW
22:06 -10.1 °F -11.4 °F 1021.2 in North 4.7 mph 18.5 mph 90% 0.0 in WeatherDisplay:10.37 W/m2 FEW
22:11 -10.1 °F -11.4 °F 1020.9 in NNE 3.4 mph 5.6 mph 90% 0.0 in WeatherDisplay:10.37 W/m2 FEW
22:16 -10.1 °F -11.4 °F 1020.9 in NNW 2.6 mph 6.4 mph 90% 0.0 in WeatherDisplay:10.37 W/m2 FEW
22:21 -10.1 °F -11.4 °F 1020.9 in NNW 3.7 mph 12.9 mph 90% 0.0 in WeatherDisplay:10.37 W/m2 FEW
22:27 -10.1 °F -11.4 °F 1020.9 in NNW 3.1 mph 8.0 mph 90% 0.0 in WeatherDisplay:10.37 W/m2 FEW
22:32 -10.2 °F -11.5 °F 1020.9 in NNW 3.2 mph 5.6 mph 90% 0.0 in WeatherDisplay:10.37 W/m2 FEW
22:37 -10.2 °F -11.5 °F 1020.9 in NNW 4.0 mph 14.8 mph 90% 0.0 in WeatherDisplay:10.37 W/m2 FEW
22:42 -10.2 °F -10.3 °F 1020.9 in NNW 3.5 mph 5.6 mph 99% 0.0 in WeatherDisplay:10.37 W/m2 FEW
22:47 -10.2 °F -10.3 °F 1020.9 in NW 4.7 mph 9.3 mph 99% 0.0 in WeatherDisplay:10.37 W/m2 FEW
22:52 -10.2 °F -11.6 °F 1020.5 in North 1.0 mph 5.6 mph 90% 0.0 in WeatherDisplay:10.37 W/m2 FEW
22:57 -10.2 °F -10.3 °F 1020.2 in NNW 5.3 mph 9.3 mph 99% 0.0 in WeatherDisplay:10.37 W/m2 FEW
23:03 -10.2 °F -10.3 °F 1019.9 in NNW 4.2 mph 5.6 mph 99% 0.0 in WeatherDisplay:10.37 W/m2 FEW
23:08 -10.2 °F -11.6 °F 1019.9 in NNW 3.7 mph 7.4 mph 90% 0.0 in WeatherDisplay:10.37 W/m2 FEW
23:13 -10.2 °F -11.6 °F 1019.9 in NNW 7.1 mph 14.8 mph 90% 0.0 in WeatherDisplay:10.37 W/m2 FEW
23:18 -10.2 °F -11.6 °F 1019.9 in NNE 4.0 mph 13.0 mph 90% 0.0 in WeatherDisplay:10.37 W/m2 FEW
23:23 -10.2 °F -11.6 °F 1019.9 in North 3.2 mph 6.4 mph 90% 0.0 in WeatherDisplay:10.37 W/m2 FEW
23:29 -10.3 °F -11.6 °F 1019.5 in North 4.7 mph 13.0 mph 90% 0.0 in WeatherDisplay:10.37 W/m2 FEW
23:34 -10.3 °F -11.6 °F 1019.5 in NNW 1.4 mph 8.0 mph 90% 0.0 in WeatherDisplay:10.37 W/m2 FEW
23:39 -10.3 °F -11.7 °F 1019.5 in NNW 1.6 mph 5.6 mph 90% 0.0 in WeatherDisplay:10.37 W/m2 FEW
23:44 -10.4 °F -11.7 °F 1019.5 in NNW 4.3 mph 9.3 mph 90% 0.0 in WeatherDisplay:10.37 W/m2 FEW
23:49 -10.4 °F -11.7 °F 1019.5 in NNW 2.7 mph 9.3 mph 90% 0.0 in WeatherDisplay:10.37 W/m2 FEW
23:54 -10.4 °F -11.8 °F 1019.9 in North 1.3 mph 5.6 mph 90% 0.0 in WeatherDisplay:10.37 W/m2 FEW
23:59 -10.4 °F -11.8 °F 1019.5 in NW 3.2 mph 7.4 mph 90% 0.0 in WeatherDisplay:10.37 W/m2 FEW
Tuulensuunkaari, Veikkola, Suomi
Compliments of Weather Underground - 2.75 mb